sensor_id;sensor_type;location;lat;lon;timestamp;temperature;humidity
53876;DHT22;39789;53.216;5.624;2024-02-14T00:00:01;7.30;99.90
53876;DHT22;39789;53.216;5.624;2024-02-14T00:02:26;7.40;99.90
53876;DHT22;39789;53.216;5.624;2024-02-14T00:04:53;6.90;99.90
53876;DHT22;39789;53.216;5.624;2024-02-14T00:07:22;7.00;99.90
53876;DHT22;39789;53.216;5.624;2024-02-14T00:09:47;7.20;99.90
53876;DHT22;39789;53.216;5.624;2024-02-14T00:12:13;7.30;99.90
53876;DHT22;39789;53.216;5.624;2024-02-14T00:14:39;6.80;99.90
53876;DHT22;39789;53.216;5.624;2024-02-14T00:17:05;7.50;99.90
53876;DHT22;39789;53.216;5.624;2024-02-14T00:19:31;6.90;99.90
53876;DHT22;39789;53.216;5.624;2024-02-14T00:21:57;7.00;99.90
53876;DHT22;39789;53.216;5.624;2024-02-14T00:24:23;6.90;99.90
53876;DHT22;39789;53.216;5.624;2024-02-14T00:26:52;6.90;99.90
53876;DHT22;39789;53.216;5.624;2024-02-14T00:29:17;6.90;99.90
53876;DHT22;39789;53.216;5.624;2024-02-14T00:31:44;7.00;99.90
53876;DHT22;39789;53.216;5.624;2024-02-14T00:34:10;6.90;99.90
53876;DHT22;39789;53.216;5.624;2024-02-14T00:36:36;7.60;99.90
53876;DHT22;39789;53.216;5.624;2024-02-14T00:39:02;7.50;99.90
53876;DHT22;39789;53.216;5.624;2024-02-14T00:41:28;7.00;99.90
53876;DHT22;39789;53.216;5.624;2024-02-14T00:43:57;8.00;99.90
53876;DHT22;39789;53.216;5.624;2024-02-14T00:46:23;7.10;99.90
53876;DHT22;39789;53.216;5.624;2024-02-14T00:48:49;7.30;99.90
53876;DHT22;39789;53.216;5.624;2024-02-14T00:51:14;7.40;99.90
53876;DHT22;39789;53.216;5.624;2024-02-14T00:53:40;7.50;99.90
53876;DHT22;39789;53.216;5.624;2024-02-14T00:56:06;7.90;99.90
53876;DHT22;39789;53.216;5.624;2024-02-14T00:58:32;7.50;99.90
53876;DHT22;39789;53.216;5.624;2024-02-14T01:00:58;7.30;99.90
53876;DHT22;39789;53.216;5.624;2024-02-14T01:03:24;7.50;99.90
53876;DHT22;39789;53.216;5.624;2024-02-14T01:05:49;7.30;99.90
53876;DHT22;39789;53.216;5.624;2024-02-14T01:08:15;7.70;99.90
53876;DHT22;39789;53.216;5.624;2024-02-14T01:10:41;8.00;99.90
53876;DHT22;39789;53.216;5.624;2024-02-14T01:13:06;8.20;99.90
53876;DHT22;39789;53.216;5.624;2024-02-14T01:15:32;8.60;99.90
53876;DHT22;39789;53.216;5.624;2024-02-14T01:18:01;8.40;99.90
53876;DHT22;39789;53.216;5.624;2024-02-14T01:20:26;7.50;99.90
53876;DHT22;39789;53.216;5.624;2024-02-14T01:22:52;7.50;99.90
53876;DHT22;39789;53.216;5.624;2024-02-14T01:25:18;7.90;99.90
53876;DHT22;39789;53.216;5.624;2024-02-14T01:27:43;8.00;99.90
53876;DHT22;39789;53.216;5.624;2024-02-14T01:30:10;8.30;99.90
53876;DHT22;39789;53.216;5.624;2024-02-14T01:32:36;7.60;99.90
53876;DHT22;39789;53.216;5.624;2024-02-14T01:35:02;7.60;99.90
53876;DHT22;39789;53.216;5.624;2024-02-14T01:37:29;7.70;99.90
53876;DHT22;39789;53.216;5.624;2024-02-14T01:39:55;7.60;99.90
53876;DHT22;39789;53.216;5.624;2024-02-14T01:42:21;7.70;99.90
53876;DHT22;39789;53.216;5.624;2024-02-14T01:44:47;7.70;99.90
53876;DHT22;39789;53.216;5.624;2024-02-14T01:47:13;7.70;99.90
53876;DHT22;39789;53.216;5.624;2024-02-14T01:49:39;8.50;99.90
53876;DHT22;39789;53.216;5.624;2024-02-14T01:52:05;8.00;99.90
53876;DHT22;39789;53.216;5.624;2024-02-14T01:54:31;7.80;99.90
53876;DHT22;39789;53.216;5.624;2024-02-14T01:56:59;7.80;99.90
53876;DHT22;39789;53.216;5.624;2024-02-14T01:59:26;7.80;99.90
53876;DHT22;39789;53.216;5.624;2024-02-14T02:01:52;8.60;99.90
53876;DHT22;39789;53.216;5.624;2024-02-14T02:04:18;7.80;99.90
53876;DHT22;39789;53.216;5.624;2024-02-14T02:06:44;8.60;99.90
53876;DHT22;39789;53.216;5.624;2024-02-14T02:09:10;8.60;99.90
53876;DHT22;39789;53.216;5.624;2024-02-14T02:11:46;8.30;99.90
53876;DHT22;39789;53.216;5.624;2024-02-14T02:14:14;7.80;99.90
53876;DHT22;39789;53.216;5.624;2024-02-14T02:16:40;8.50;99.90
53876;DHT22;39789;53.216;5.624;2024-02-14T02:19:05;8.30;99.90
53876;DHT22;39789;53.216;5.624;2024-02-14T02:21:34;8.70;99.90
53876;DHT22;39789;53.216;5.624;2024-02-14T02:24:00;8.60;99.90
53876;DHT22;39789;53.216;5.624;2024-02-14T02:26:26;7.90;99.90
53876;DHT22;39789;53.216;5.624;2024-02-14T02:28:52;8.00;99.90
53876;DHT22;39789;53.216;5.624;2024-02-14T02:31:19;8.20;99.90
53876;DHT22;39789;53.216;5.624;2024-02-14T02:33:44;8.10;99.90
53876;DHT22;39789;53.216;5.624;2024-02-14T02:36:10;8.40;99.90
53876;DHT22;39789;53.216;5.624;2024-02-14T02:38:37;8.30;99.90
53876;DHT22;39789;53.216;5.624;2024-02-14T02:41:03;8.20;99.90
53876;DHT22;39789;53.216;5.624;2024-02-14T02:43:32;8.20;99.90
53876;DHT22;39789;53.216;5.624;2024-02-14T02:45:58;7.00;99.90
53876;DHT22;39789;53.216;5.624;2024-02-14T02:48:24;8.20;99.90
53876;DHT22;39789;53.216;5.624;2024-02-14T02:50:51;8.40;99.90
53876;DHT22;39789;53.216;5.624;2024-02-14T02:53:17;8.20;99.90
53876;DHT22;39789;53.216;5.624;2024-02-14T02:55:43;8.60;99.90
53876;DHT22;39789;53.216;5.624;2024-02-14T02:58:09;8.30;99.90
53876;DHT22;39789;53.216;5.624;2024-02-14T03:00:35;8.50;99.90
53876;DHT22;39789;53.216;5.624;2024-02-14T03:03:01;8.40;99.90
53876;DHT22;39789;53.216;5.624;2024-02-14T03:05:30;8.40;99.90
53876;DHT22;39789;53.216;5.624;2024-02-14T03:07:59;8.50;99.90
53876;DHT22;39789;53.216;5.624;2024-02-14T03:10:26;8.50;99.90
53876;DHT22;39789;53.216;5.624;2024-02-14T03:12:52;8.50;99.90
53876;DHT22;39789;53.216;5.624;2024-02-14T03:15:18;8.60;99.90
53876;DHT22;39789;53.216;5.624;2024-02-14T03:17:46;8.60;99.90
53876;DHT22;39789;53.216;5.624;2024-02-14T03:20:12;8.60;99.90
53876;DHT22;39789;53.216;5.624;2024-02-14T03:22:42;8.70;99.90
53876;DHT22;39789;53.216;5.624;2024-02-14T03:25:17;8.70;99.90
53876;DHT22;39789;53.216;5.624;2024-02-14T03:27:43;8.70;99.90
53876;DHT22;39789;53.216;5.624;2024-02-14T03:30:15;8.70;99.90
53876;DHT22;39789;53.216;5.624;2024-02-14T03:32:42;8.70;99.90
53876;DHT22;39789;53.216;5.624;2024-02-14T03:35:08;8.90;99.90
53876;DHT22;39789;53.216;5.624;2024-02-14T03:37:35;8.90;99.90
53876;DHT22;39789;53.216;5.624;2024-02-14T03:40:04;8.70;99.90
53876;DHT22;39789;53.216;5.624;2024-02-14T03:42:30;8.80;99.90
53876;DHT22;39789;53.216;5.624;2024-02-14T03:44:56;8.80;99.90
53876;DHT22;39789;53.216;5.624;2024-02-14T03:47:28;8.90;99.90
53876;DHT22;39789;53.216;5.624;2024-02-14T03:49:54;8.80;99.90
53876;DHT22;39789;53.216;5.624;2024-02-14T03:52:20;8.80;99.90
53876;DHT22;39789;53.216;5.624;2024-02-14T03:54:48;9.10;99.90
53876;DHT22;39789;53.216;5.624;2024-02-14T03:57:13;8.80;99.90
53876;DHT22;39789;53.216;5.624;2024-02-14T03:59:39;8.80;99.90
53876;DHT22;39789;53.216;5.624;2024-02-14T04:02:05;8.90;99.90
53876;DHT22;39789;53.216;5.624;2024-02-14T04:04:39;8.90;99.90
53876;DHT22;39789;53.216;5.624;2024-02-14T04:07:07;8.80;99.90
53876;DHT22;39789;53.216;5.624;2024-02-14T04:09:34;8.80;99.90
53876;DHT22;39789;53.216;5.624;2024-02-14T04:12:00;8.80;99.90
53876;DHT22;39789;53.216;5.624;2024-02-14T04:14:26;8.90;99.90
53876;DHT22;39789;53.216;5.624;2024-02-14T04:16:51;8.90;99.90
53876;DHT22;39789;53.216;5.624;2024-02-14T04:19:17;8.90;99.90
53876;DHT22;39789;53.216;5.624;2024-02-14T04:21:43;8.90;99.90
53876;DHT22;39789;53.216;5.624;2024-02-14T04:24:09;9.00;99.90
53876;DHT22;39789;53.216;5.624;2024-02-14T04:26:35;9.10;99.90
53876;DHT22;39789;53.216;5.624;2024-02-14T04:29:01;8.90;99.90
53876;DHT22;39789;53.216;5.624;2024-02-14T04:31:27;9.00;99.90
53876;DHT22;39789;53.216;5.624;2024-02-14T04:33:58;9.00;99.90
53876;DHT22;39789;53.216;5.624;2024-02-14T04:36:24;9.00;99.90
53876;DHT22;39789;53.216;5.624;2024-02-14T04:38:50;8.90;99.90
53876;DHT22;39789;53.216;5.624;2024-02-14T04:41:17;8.90;99.90
53876;DHT22;39789;53.216;5.624;2024-02-14T04:43:43;9.00;99.90
53876;DHT22;39789;53.216;5.624;2024-02-14T04:46:09;8.90;99.90
53876;DHT22;39789;53.216;5.624;2024-02-14T04:48:35;9.00;99.90
53876;DHT22;39789;53.216;5.624;2024-02-14T04:51:03;9.00;99.90
53876;DHT22;39789;53.216;5.624;2024-02-14T04:53:30;9.00;99.90
53876;DHT22;39789;53.216;5.624;2024-02-14T04:55:56;9.00;99.90
53876;DHT22;39789;53.216;5.624;2024-02-14T04:58:22;9.00;99.90
53876;DHT22;39789;53.216;5.624;2024-02-14T05:00:47;9.00;99.90
53876;DHT22;39789;53.216;5.624;2024-02-14T05:03:13;9.00;99.90
53876;DHT22;39789;53.216;5.624;2024-02-14T05:05:39;9.00;99.90
53876;DHT22;39789;53.216;5.624;2024-02-14T05:08:05;9.00;99.90
53876;DHT22;39789;53.216;5.624;2024-02-14T05:10:31;9.10;99.90
53876;DHT22;39789;53.216;5.624;2024-02-14T05:12:57;9.10;99.90
53876;DHT22;39789;53.216;5.624;2024-02-14T05:15:23;9.10;99.90
53876;DHT22;39789;53.216;5.624;2024-02-14T05:17:49;9.10;99.90
53876;DHT22;39789;53.216;5.624;2024-02-14T05:20:18;9.20;99.90
53876;DHT22;39789;53.216;5.624;2024-02-14T05:22:44;9.10;99.90
53876;DHT22;39789;53.216;5.624;2024-02-14T05:25:10;9.10;99.90
53876;DHT22;39789;53.216;5.624;2024-02-14T05:27:36;9.10;99.90
53876;DHT22;39789;53.216;5.624;2024-02-14T05:30:06;9.10;99.90
53876;DHT22;39789;53.216;5.624;2024-02-14T05:32:32;9.20;99.90
53876;DHT22;39789;53.216;5.624;2024-02-14T05:34:58;9.10;99.90
53876;DHT22;39789;53.216;5.624;2024-02-14T05:37:24;9.10;99.90
53876;DHT22;39789;53.216;5.624;2024-02-14T05:39:56;9.10;99.90
53876;DHT22;39789;53.216;5.624;2024-02-14T05:42:21;9.10;99.90
53876;DHT22;39789;53.216;5.624;2024-02-14T05:44:48;9.20;99.90
53876;DHT22;39789;53.216;5.624;2024-02-14T05:47:13;9.20;99.90
53876;DHT22;39789;53.216;5.624;2024-02-14T05:49:40;9.20;99.90
53876;DHT22;39789;53.216;5.624;2024-02-14T05:52:06;9.20;99.90
53876;DHT22;39789;53.216;5.624;2024-02-14T05:54:33;9.20;99.90
53876;DHT22;39789;53.216;5.624;2024-02-14T05:56:59;9.20;99.90
53876;DHT22;39789;53.216;5.624;2024-02-14T05:59:24;9.20;99.90
53876;DHT22;39789;53.216;5.624;2024-02-14T06:01:50;9.30;99.90
53876;DHT22;39789;53.216;5.624;2024-02-14T06:04:16;9.20;99.90
53876;DHT22;39789;53.216;5.624;2024-02-14T06:06:41;9.20;99.90
53876;DHT22;39789;53.216;5.624;2024-02-14T06:09:07;9.20;99.90
53876;DHT22;39789;53.216;5.624;2024-02-14T06:11:37;9.30;99.90
53876;DHT22;39789;53.216;5.624;2024-02-14T06:14:06;9.30;99.90
53876;DHT22;39789;53.216;5.624;2024-02-14T06:16:32;9.20;99.90
53876;DHT22;39789;53.216;5.624;2024-02-14T06:18:58;9.20;99.90
53876;DHT22;39789;53.216;5.624;2024-02-14T06:21:23;9.30;99.90
53876;DHT22;39789;53.216;5.624;2024-02-14T06:23:51;9.30;99.90
53876;DHT22;39789;53.216;5.624;2024-02-14T06:26:16;9.20;99.90
53876;DHT22;39789;53.216;5.624;2024-02-14T06:28:44;9.20;99.90
53876;DHT22;39789;53.216;5.624;2024-02-14T06:31:09;9.20;99.90
53876;DHT22;39789;53.216;5.624;2024-02-14T06:33:36;9.20;99.90
53876;DHT22;39789;53.216;5.624;2024-02-14T06:36:02;9.20;99.90
53876;DHT22;39789;53.216;5.624;2024-02-14T06:38:27;9.20;99.90
53876;DHT22;39789;53.216;5.624;2024-02-14T06:40:53;9.20;99.90
53876;DHT22;39789;53.216;5.624;2024-02-14T06:43:19;9.20;99.90
53876;DHT22;39789;53.216;5.624;2024-02-14T06:45:45;9.20;99.90
53876;DHT22;39789;53.216;5.624;2024-02-14T06:48:11;9.20;99.90
53876;DHT22;39789;53.216;5.624;2024-02-14T06:50:37;9.20;99.90
53876;DHT22;39789;53.216;5.624;2024-02-14T06:53:03;9.20;99.90
53876;DHT22;39789;53.216;5.624;2024-02-14T06:55:29;9.20;99.90
53876;DHT22;39789;53.216;5.624;2024-02-14T06:58:01;9.20;99.90
53876;DHT22;39789;53.216;5.624;2024-02-14T07:00:27;9.20;99.90
53876;DHT22;39789;53.216;5.624;2024-02-14T07:02:53;9.30;99.90
53876;DHT22;39789;53.216;5.624;2024-02-14T07:05:19;9.20;99.90
53876;DHT22;39789;53.216;5.624;2024-02-14T07:07:45;9.20;99.90
53876;DHT22;39789;53.216;5.624;2024-02-14T07:10:11;9.20;99.90
53876;DHT22;39789;53.216;5.624;2024-02-14T07:12:36;9.30;99.90
53876;DHT22;39789;53.216;5.624;2024-02-14T07:15:05;9.30;99.90
53876;DHT22;39789;53.216;5.624;2024-02-14T07:17:31;9.30;99.90
53876;DHT22;39789;53.216;5.624;2024-02-14T07:19:58;9.30;99.90
53876;DHT22;39789;53.216;5.624;2024-02-14T07:22:23;9.40;99.90
53876;DHT22;39789;53.216;5.624;2024-02-14T07:24:49;9.30;99.90
53876;DHT22;39789;53.216;5.624;2024-02-14T07:27:15;9.30;99.90
53876;DHT22;39789;53.216;5.624;2024-02-14T07:29:42;9.40;99.90
53876;DHT22;39789;53.216;5.624;2024-02-14T07:32:08;9.40;99.90
53876;DHT22;39789;53.216;5.624;2024-02-14T07:34:33;9.40;99.90
53876;DHT22;39789;53.216;5.624;2024-02-14T07:36:59;9.40;99.90
53876;DHT22;39789;53.216;5.624;2024-02-14T07:39:25;9.40;99.90
53876;DHT22;39789;53.216;5.624;2024-02-14T07:41:51;9.40;99.90
53876;DHT22;39789;53.216;5.624;2024-02-14T07:44:17;9.40;99.90
53876;DHT22;39789;53.216;5.624;2024-02-14T07:46:43;9.40;99.90
53876;DHT22;39789;53.216;5.624;2024-02-14T07:49:08;9.50;99.90
53876;DHT22;39789;53.216;5.624;2024-02-14T07:51:35;9.50;99.90
53876;DHT22;39789;53.216;5.624;2024-02-14T07:54:05;9.50;99.90
53876;DHT22;39789;53.216;5.624;2024-02-14T07:56:31;9.50;99.90
53876;DHT22;39789;53.216;5.624;2024-02-14T07:58:57;9.50;99.90
53876;DHT22;39789;53.216;5.624;2024-02-14T08:01:23;9.50;99.90
53876;DHT22;39789;53.216;5.624;2024-02-14T08:03:48;9.50;99.90
53876;DHT22;39789;53.216;5.624;2024-02-14T08:06:14;9.50;99.90
53876;DHT22;39789;53.216;5.624;2024-02-14T08:08:40;9.60;99.90
53876;DHT22;39789;53.216;5.624;2024-02-14T08:11:06;9.60;99.90
53876;DHT22;39789;53.216;5.624;2024-02-14T08:13:32;9.60;99.90
53876;DHT22;39789;53.216;5.624;2024-02-14T08:15:58;9.60;99.90
53876;DHT22;39789;53.216;5.624;2024-02-14T08:18:24;9.60;99.90
53876;DHT22;39789;53.216;5.624;2024-02-14T08:20:50;9.70;99.90
53876;DHT22;39789;53.216;5.624;2024-02-14T08:23:16;9.70;99.90
53876;DHT22;39789;53.216;5.624;2024-02-14T08:25:42;9.70;99.90
53876;DHT22;39789;53.216;5.624;2024-02-14T08:28:09;9.70;99.90
53876;DHT22;39789;53.216;5.624;2024-02-14T08:30:34;9.80;99.90
53876;DHT22;39789;53.216;5.624;2024-02-14T08:33:00;9.80;99.90
53876;DHT22;39789;53.216;5.624;2024-02-14T08:35:26;9.80;99.90
53876;DHT22;39789;53.216;5.624;2024-02-14T08:37:52;9.90;99.90
53876;DHT22;39789;53.216;5.624;2024-02-14T08:40:17;9.90;99.90
53876;DHT22;39789;53.216;5.624;2024-02-14T08:42:43;10.00;99.90
53876;DHT22;39789;53.216;5.624;2024-02-14T08:45:09;10.00;99.90
53876;DHT22;39789;53.216;5.624;2024-02-14T08:47:36;10.00;99.90
53876;DHT22;39789;53.216;5.624;2024-02-14T08:50:03;10.10;99.90
53876;DHT22;39789;53.216;5.624;2024-02-14T08:52:29;10.10;99.90
53876;DHT22;39789;53.216;5.624;2024-02-14T08:54:55;10.10;99.90
53876;DHT22;39789;53.216;5.624;2024-02-14T08:57:20;10.20;99.90
53876;DHT22;39789;53.216;5.624;2024-02-14T08:59:46;10.10;99.90
53876;DHT22;39789;53.216;5.624;2024-02-14T09:02:14;10.20;99.90
53876;DHT22;39789;53.216;5.624;2024-02-14T09:04:40;10.20;99.90
53876;DHT22;39789;53.216;5.624;2024-02-14T09:07:10;10.20;99.90
53876;DHT22;39789;53.216;5.624;2024-02-14T09:09:35;10.30;99.90
53876;DHT22;39789;53.216;5.624;2024-02-14T09:12:04;10.20;99.90
53876;DHT22;39789;53.216;5.624;2024-02-14T09:14:29;10.30;99.90
53876;DHT22;39789;53.216;5.624;2024-02-14T09:16:56;10.30;99.90
53876;DHT22;39789;53.216;5.624;2024-02-14T09:19:22;10.20;99.90
53876;DHT22;39789;53.216;5.624;2024-02-14T09:21:48;10.30;99.90
53876;DHT22;39789;53.216;5.624;2024-02-14T09:24:13;10.20;99.90
53876;DHT22;39789;53.216;5.624;2024-02-14T09:26:39;10.20;99.90
53876;DHT22;39789;53.216;5.624;2024-02-14T09:29:05;10.20;99.90
53876;DHT22;39789;53.216;5.624;2024-02-14T09:31:31;10.20;99.90
53876;DHT22;39789;53.216;5.624;2024-02-14T09:33:57;10.20;99.90
53876;DHT22;39789;53.216;5.624;2024-02-14T09:36:24;10.20;99.90
53876;DHT22;39789;53.216;5.624;2024-02-14T09:38:51;10.20;99.90
53876;DHT22;39789;53.216;5.624;2024-02-14T09:41:35;10.20;99.90
53876;DHT22;39789;53.216;5.624;2024-02-14T09:44:03;10.20;99.90
53876;DHT22;39789;53.216;5.624;2024-02-14T09:46:31;10.20;99.90
53876;DHT22;39789;53.216;5.624;2024-02-14T09:48:58;10.20;99.90
53876;DHT22;39789;53.216;5.624;2024-02-14T09:51:28;10.20;99.90
53876;DHT22;39789;53.216;5.624;2024-02-14T09:53:55;10.20;99.90
53876;DHT22;39789;53.216;5.624;2024-02-14T09:56:21;10.20;99.90
53876;DHT22;39789;53.216;5.624;2024-02-14T09:58:51;10.30;99.90
53876;DHT22;39789;53.216;5.624;2024-02-14T10:01:25;10.30;99.90
53876;DHT22;39789;53.216;5.624;2024-02-14T10:03:51;10.30;99.90
53876;DHT22;39789;53.216;5.624;2024-02-14T10:06:20;10.30;99.90
53876;DHT22;39789;53.216;5.624;2024-02-14T10:08:53;10.40;99.90
53876;DHT22;39789;53.216;5.624;2024-02-14T10:11:20;10.40;99.90
53876;DHT22;39789;53.216;5.624;2024-02-14T10:13:49;10.50;99.90
53876;DHT22;39789;53.216;5.624;2024-02-14T10:16:19;10.50;99.90
53876;DHT22;39789;53.216;5.624;2024-02-14T10:18:45;10.50;99.90
53876;DHT22;39789;53.216;5.624;2024-02-14T10:21:16;10.60;99.90
53876;DHT22;39789;53.216;5.624;2024-02-14T10:23:45;10.60;99.90
53876;DHT22;39789;53.216;5.624;2024-02-14T10:26:15;10.60;99.90
53876;DHT22;39789;53.216;5.624;2024-02-14T10:28:42;10.60;99.90
53876;DHT22;39789;53.216;5.624;2024-02-14T10:31:09;10.60;99.90
53876;DHT22;39789;53.216;5.624;2024-02-14T10:33:35;10.60;99.90
53876;DHT22;39789;53.216;5.624;2024-02-14T10:36:01;10.60;99.90
53876;DHT22;39789;53.216;5.624;2024-02-14T10:38:31;10.60;99.90
53876;DHT22;39789;53.216;5.624;2024-02-14T10:41:01;10.70;99.90
53876;DHT22;39789;53.216;5.624;2024-02-14T10:43:28;10.70;99.90
53876;DHT22;39789;53.216;5.624;2024-02-14T10:45:59;10.70;99.90
53876;DHT22;39789;53.216;5.624;2024-02-14T10:48:28;10.80;99.90
53876;DHT22;39789;53.216;5.624;2024-02-14T10:50:59;10.80;99.90
53876;DHT22;39789;53.216;5.624;2024-02-14T10:53:29;10.70;99.90
53876;DHT22;39789;53.216;5.624;2024-02-14T10:55:59;10.80;99.90
53876;DHT22;39789;53.216;5.624;2024-02-14T10:58:28;10.70;99.90
53876;DHT22;39789;53.216;5.624;2024-02-14T11:00:56;10.80;99.90
53876;DHT22;39789;53.216;5.624;2024-02-14T11:03:22;10.80;99.90
53876;DHT22;39789;53.216;5.624;2024-02-14T11:05:49;10.80;99.90
53876;DHT22;39789;53.216;5.624;2024-02-14T11:08:19;10.90;99.90
53876;DHT22;39789;53.216;5.624;2024-02-14T11:10:56;10.80;99.90
53876;DHT22;39789;53.216;5.624;2024-02-14T11:13:30;10.90;99.90
53876;DHT22;39789;53.216;5.624;2024-02-14T11:16:03;10.80;99.90
53876;DHT22;39789;53.216;5.624;2024-02-14T11:18:30;10.90;99.90
53876;DHT22;39789;53.216;5.624;2024-02-14T11:20:56;10.90;99.90
53876;DHT22;39789;53.216;5.624;2024-02-14T11:23:30;10.90;99.90
53876;DHT22;39789;53.216;5.624;2024-02-14T11:26:03;10.90;99.90
53876;DHT22;39789;53.216;5.624;2024-02-14T11:28:30;10.90;99.90
53876;DHT22;39789;53.216;5.624;2024-02-14T11:31:02;10.90;99.90
53876;DHT22;39789;53.216;5.624;2024-02-14T11:33:29;11.00;99.90
53876;DHT22;39789;53.216;5.624;2024-02-14T11:35:55;10.90;99.90
53876;DHT22;39789;53.216;5.624;2024-02-14T11:38:25;10.90;99.90
53876;DHT22;39789;53.216;5.624;2024-02-14T11:40:54;11.00;99.90
53876;DHT22;39789;53.216;5.624;2024-02-14T11:43:22;10.90;99.90
53876;DHT22;39789;53.216;5.624;2024-02-14T11:45:48;11.00;99.90
53876;DHT22;39789;53.216;5.624;2024-02-14T11:48:16;11.00;99.90
53876;DHT22;39789;53.216;5.624;2024-02-14T11:50:44;11.00;99.90
53876;DHT22;39789;53.216;5.624;2024-02-14T11:53:14;11.00;99.90
53876;DHT22;39789;53.216;5.624;2024-02-14T11:55:43;11.10;99.90
53876;DHT22;39789;53.216;5.624;2024-02-14T11:58:12;11.00;99.90
53876;DHT22;39789;53.216;5.624;2024-02-14T12:00:45;11.00;99.90
53876;DHT22;39789;53.216;5.624;2024-02-14T12:03:20;11.00;99.90
53876;DHT22;39789;53.216;5.624;2024-02-14T12:05:46;11.00;99.90
53876;DHT22;39789;53.216;5.624;2024-02-14T12:08:13;11.00;99.90
53876;DHT22;39789;53.216;5.624;2024-02-14T12:10:41;10.90;99.90
53876;DHT22;39789;53.216;5.624;2024-02-14T12:13:11;11.00;99.90
53876;DHT22;39789;53.216;5.624;2024-02-14T12:15:41;11.00;99.90
53876;DHT22;39789;53.216;5.624;2024-02-14T12:18:11;11.00;99.90
53876;DHT22;39789;53.216;5.624;2024-02-14T12:20:37;11.00;99.90
53876;DHT22;39789;53.216;5.624;2024-02-14T12:23:04;11.00;99.90
53876;DHT22;39789;53.216;5.624;2024-02-14T12:25:31;11.00;99.90
53876;DHT22;39789;53.216;5.624;2024-02-14T12:27:57;11.00;99.90
53876;DHT22;39789;53.216;5.624;2024-02-14T12:30:48;11.00;99.90
53876;DHT22;39789;53.216;5.624;2024-02-14T12:33:27;10.90;99.90
53876;DHT22;39789;53.216;5.624;2024-02-14T12:35:56;10.90;99.90
53876;DHT22;39789;53.216;5.624;2024-02-14T12:38:24;10.80;99.90
53876;DHT22;39789;53.216;5.624;2024-02-14T12:40:50;10.90;99.90
53876;DHT22;39789;53.216;5.624;2024-02-14T12:43:17;10.80;99.90
53876;DHT22;39789;53.216;5.624;2024-02-14T12:45:43;10.80;99.90
53876;DHT22;39789;53.216;5.624;2024-02-14T12:48:10;10.80;99.90
53876;DHT22;39789;53.216;5.624;2024-02-14T12:50:37;10.80;99.90
53876;DHT22;39789;53.216;5.624;2024-02-14T12:53:12;10.80;99.90
53876;DHT22;39789;53.216;5.624;2024-02-14T12:55:38;10.80;99.90
53876;DHT22;39789;53.216;5.624;2024-02-14T12:58:04;10.70;99.90
53876;DHT22;39789;53.216;5.624;2024-02-14T13:00:29;10.80;99.90
53876;DHT22;39789;53.216;5.624;2024-02-14T13:02:57;10.80;99.90
53876;DHT22;39789;53.216;5.624;2024-02-14T13:05:23;10.80;99.90
53876;DHT22;39789;53.216;5.624;2024-02-14T13:07:51;10.80;99.90
53876;DHT22;39789;53.216;5.624;2024-02-14T13:10:17;10.80;99.90
53876;DHT22;39789;53.216;5.624;2024-02-14T13:12:43;10.80;99.90
53876;DHT22;39789;53.216;5.624;2024-02-14T13:15:10;10.80;99.90
53876;DHT22;39789;53.216;5.624;2024-02-14T13:17:36;10.80;99.90
53876;DHT22;39789;53.216;5.624;2024-02-14T13:20:02;10.80;99.90
53876;DHT22;39789;53.216;5.624;2024-02-14T13:22:28;10.80;99.90
53876;DHT22;39789;53.216;5.624;2024-02-14T13:24:54;10.80;99.90
53876;DHT22;39789;53.216;5.624;2024-02-14T13:27:19;10.80;99.90
53876;DHT22;39789;53.216;5.624;2024-02-14T13:29:49;10.80;99.90
53876;DHT22;39789;53.216;5.624;2024-02-14T13:32:15;10.80;99.90
53876;DHT22;39789;53.216;5.624;2024-02-14T13:34:41;10.90;99.90
53876;DHT22;39789;53.216;5.624;2024-02-14T13:37:07;10.90;99.90
53876;DHT22;39789;53.216;5.624;2024-02-14T13:39:34;10.90;99.90
53876;DHT22;39789;53.216;5.624;2024-02-14T13:42:00;10.90;99.90
53876;DHT22;39789;53.216;5.624;2024-02-14T13:44:27;10.90;99.90
53876;DHT22;39789;53.216;5.624;2024-02-14T13:46:53;11.00;99.90
53876;DHT22;39789;53.216;5.624;2024-02-14T13:49:19;11.00;99.90
53876;DHT22;39789;53.216;5.624;2024-02-14T13:51:51;10.90;99.90
53876;DHT22;39789;53.216;5.624;2024-02-14T13:54:21;11.00;99.90
53876;DHT22;39789;53.216;5.624;2024-02-14T13:56:49;11.00;99.90
53876;DHT22;39789;53.216;5.624;2024-02-14T13:59:15;10.90;99.90
53876;DHT22;39789;53.216;5.624;2024-02-14T14:01:42;11.00;99.90
53876;DHT22;39789;53.216;5.624;2024-02-14T14:04:08;11.00;99.90
53876;DHT22;39789;53.216;5.624;2024-02-14T14:06:33;11.00;99.90
53876;DHT22;39789;53.216;5.624;2024-02-14T14:09:00;11.10;99.90
53876;DHT22;39789;53.216;5.624;2024-02-14T14:11:26;11.10;99.90
53876;DHT22;39789;53.216;5.624;2024-02-14T14:13:52;11.10;99.90
53876;DHT22;39789;53.216;5.624;2024-02-14T14:16:17;11.10;99.90
53876;DHT22;39789;53.216;5.624;2024-02-14T14:18:43;11.10;99.90
53876;DHT22;39789;53.216;5.624;2024-02-14T14:21:09;11.10;99.90
53876;DHT22;39789;53.216;5.624;2024-02-14T14:23:37;11.10;99.90
53876;DHT22;39789;53.216;5.624;2024-02-14T14:26:03;11.10;99.90
53876;DHT22;39789;53.216;5.624;2024-02-14T14:28:29;11.10;99.90
53876;DHT22;39789;53.216;5.624;2024-02-14T14:30:57;11.10;99.90
53876;DHT22;39789;53.216;5.624;2024-02-14T14:33:25;11.10;99.90
53876;DHT22;39789;53.216;5.624;2024-02-14T14:35:51;11.10;99.90
53876;DHT22;39789;53.216;5.624;2024-02-14T14:38:19;11.20;99.90
53876;DHT22;39789;53.216;5.624;2024-02-14T14:40:46;11.10;99.90
53876;DHT22;39789;53.216;5.624;2024-02-14T14:43:12;11.20;99.90
53876;DHT22;39789;53.216;5.624;2024-02-14T14:45:38;11.20;99.90
53876;DHT22;39789;53.216;5.624;2024-02-14T14:48:04;11.30;99.90
53876;DHT22;39789;53.216;5.624;2024-02-14T14:50:30;11.30;99.90
53876;DHT22;39789;53.216;5.624;2024-02-14T14:53:00;11.20;99.90
53876;DHT22;39789;53.216;5.624;2024-02-14T14:55:25;11.20;99.90
53876;DHT22;39789;53.216;5.624;2024-02-14T14:57:53;11.20;99.90
53876;DHT22;39789;53.216;5.624;2024-02-14T15:00:21;11.10;99.90
53876;DHT22;39789;53.216;5.624;2024-02-14T15:02:47;11.20;99.90
53876;DHT22;39789;53.216;5.624;2024-02-14T15:05:13;11.20;99.90
53876;DHT22;39789;53.216;5.624;2024-02-14T15:07:39;11.10;99.90
53876;DHT22;39789;53.216;5.624;2024-02-14T15:10:06;11.20;99.90
53876;DHT22;39789;53.216;5.624;2024-02-14T15:12:33;11.20;99.90
53876;DHT22;39789;53.216;5.624;2024-02-14T15:15:04;11.10;99.90
53876;DHT22;39789;53.216;5.624;2024-02-14T15:17:30;11.10;99.90
53876;DHT22;39789;53.216;5.624;2024-02-14T15:19:57;11.10;99.90
53876;DHT22;39789;53.216;5.624;2024-02-14T15:22:23;11.10;99.90
53876;DHT22;39789;53.216;5.624;2024-02-14T15:24:54;11.10;99.90
53876;DHT22;39789;53.216;5.624;2024-02-14T15:27:20;11.10;99.90
53876;DHT22;39789;53.216;5.624;2024-02-14T15:29:52;11.10;99.90
53876;DHT22;39789;53.216;5.624;2024-02-14T15:32:36;11.10;99.90
53876;DHT22;39789;53.216;5.624;2024-02-14T15:35:20;11.10;99.90
53876;DHT22;39789;53.216;5.624;2024-02-14T15:37:46;11.10;99.90